KCFD/CFD METAR and TAF weather

Enter ICAO airport designator
Station Type Date Time Source
KCFD METAR 2020/09/26 21:35 UTC NOAA

KCFD 262135Z AUTO 16009KT 10SM SCT050 31/19 A2987 RMK AO2 T03050191


Station Type Date Time Source
KCFD Decoded METAR 2020/09/26 21:35 UTC NOAA

Station name not available
Sep 26, 2020 - 05:35 PM EDT / 2020.09.26 2135 UTC
Wind: from the SSE (160 degrees) at 10 MPH (9 KT):0
Visibility: 10 mile(s):0
Sky conditions: partly cloudy
Temperature: 86.9 F (30.5 C)
Dew Point: 66.4 F (19.1 C)
Relative Humidity: 50%
Pressure (altimeter): 29.87 in. Hg (1011 hPa)
ob: KCFD 262135Z AUTO 16009KT 10SM SCT050 31/19 A2987 RMK AO2 T03050191
cycle: 21

Station Type Date Time Source
KCFD TAF UTC NOAA

Error!

Example: see airport list